Time;durP1;ratioP1;P1;durP2;ratioP2;P2;SDS_P1;SDS_P2;PMS_P1;PMS_P2;Temp;Humidity;BMP_temperature;BMP_pressure;BME280_temperature;BME280_humidity;BME280_pressure;Samples;Min_cycle;Max_cycle;Signal;HPM_P1;HPM_P2
2022/06/28 00:01:14;;;;;;;11.35;10.00;;;15.30;99.90;;;;;;5055725;28;20570;-45
2022/06/28 00:03:42;;;;;;;12.88;11.52;;;15.30;99.90;;;;;;5062996;28;20096;-44
2022/06/28 00:06:08;;;;;;;14.60;10.73;;;15.30;99.90;;;;;;5063273;28;20025;-46
2022/06/28 00:08:33;;;;;;;13.23;10.38;;;15.30;99.90;;;;;;5064703;28;20079;-43
2022/06/28 00:10:59;;;;;;;10.80;9.07;;;15.30;99.90;;;;;;5062102;28;20021;-44
2022/06/28 00:13:25;;;;;;;10.50;9.52;;;15.30;99.90;;;;;;5066753;28;20025;-42
2022/06/28 00:16:06;;;;;;;10.90;9.80;;;15.30;99.90;;;;;;5060571;28;20468;-43
2022/06/28 00:18:41;;;;;;;10.40;9.35;;;15.30;99.90;;;;;;5062707;28;20043;-45
2022/06/28 00:21:08;;;;;;;15.55;12.15;;;15.30;99.90;;;;;;5061708;28;20032;-42
2022/06/28 00:23:35;;;;;;;10.63;9.63;;;15.30;99.90;;;;;;5062622;28;20040;-44
2022/06/28 00:26:01;;;;;;;13.85;10.57;;;15.30;99.90;;;;;;5062214;28;20071;-44
2022/06/28 00:28:26;;;;;;;12.55;11.40;;;15.30;99.90;;;;;;5063801;28;20518;-42
2022/06/28 00:30:52;;;;;;;10.65;9.65;;;15.20;99.90;;;;;;5062179;28;20024;-42
2022/06/28 00:33:18;;;;;;;11.60;10.38;;;15.30;99.90;;;;;;5063187;28;20029;-43
2022/06/28 00:35:44;;;;;;;12.05;9.07;;;15.20;99.90;;;;;;5061956;28;20021;-42
2022/06/28 00:38:09;;;;;;;12.70;10.75;;;15.20;99.90;;;;;;5062846;28;20450;-42
2022/06/28 00:40:47;;;;;;;14.35;10.27;;;15.20;99.90;;;;;;5063298;28;20495;-42
2022/06/28 00:43:13;;;;;;;13.75;9.90;;;15.20;99.90;;;;;;5062243;28;20027;-42
2022/06/28 00:45:41;;;;;;;10.10;9.02;;;15.10;99.90;;;;;;5063540;28;20100;-43
2022/06/28 00:48:08;;;;;;;10.23;8.57;;;15.20;99.90;;;;;;5062815;28;20849;-42
2022/06/28 00:50:35;;;;;;;10.25;8.32;;;15.20;99.90;;;;;;5047677;28;20025;-42
2022/06/28 00:53:06;;;;;;;10.27;9.07;;;15.10;99.90;;;;;;5061009;28;20021;-44
2022/06/28 00:55:33;;;;;;;9.27;8.38;;;15.20;99.90;;;;;;5064749;28;20027;-42
2022/06/28 00:58:00;;;;;;;12.40;8.73;;;15.20;99.90;;;;;;5059767;28;20024;-44
2022/06/28 01:00:27;;;;;;;9.38;8.00;;;15.20;99.90;;;;;;5055176;28;20087;-42
2022/06/28 01:02:52;;;;;;;11.10;9.88;;;15.10;99.90;;;;;;5065009;28;20029;-42
2022/06/28 01:05:19;;;;;;;9.85;8.07;;;15.10;99.90;;;;;;5058190;28;20684;-44
2022/06/28 01:07:45;;;;;;;10.13;9.10;;;15.10;99.90;;;;;;5059226;28;20044;-42
2022/06/28 01:10:10;;;;;;;8.55;7.70;;;15.10;99.90;;;;;;5065773;28;20029;-43
2022/06/28 01:12:36;;;;;;;9.55;8.60;;;15.10;99.90;;;;;;5058880;28;20040;-43
2022/06/28 01:15:02;;;;;;;10.43;9.30;;;15.00;99.90;;;;;;5066542;28;20082;-42
2022/06/28 01:17:27;;;;;;;10.50;7.88;;;15.00;99.90;;;;;;5059057;28;20941;-43
2022/06/28 01:19:53;;;;;;;14.23;9.43;;;15.00;99.90;;;;;;5059921;28;20138;-43
2022/06/28 01:22:21;;;;;;;10.02;8.50;;;15.00;99.90;;;;;;5063558;28;20163;-42
2022/06/28 01:24:47;;;;;;;10.38;8.00;;;14.90;99.90;;;;;;5055616;28;20113;-45
2022/06/28 01:27:13;;;;;;;13.00;9.32;;;14.90;99.90;;;;;;5061683;28;20020;-43
2022/06/28 01:29:38;;;;;;;8.45;7.40;;;14.90;99.90;;;;;;5058527;28;20028;-48
2022/06/28 01:32:04;;;;;;;12.05;8.88;;;14.90;99.90;;;;;;5060081;28;20012;-47
2022/06/28 01:34:30;;;;;;;7.95;7.18;;;14.80;99.90;;;;;;5062044;28;20024;-46
2022/06/28 01:36:56;;;;;;;8.48;7.68;;;14.80;99.90;;;;;;5055572;28;20082;-46
2022/06/28 01:39:22;;;;;;;9.00;8.07;;;14.80;99.90;;;;;;5065349;28;20024;-45
2022/06/28 01:41:50;;;;;;;9.85;8.35;;;14.80;99.90;;;;;;5057383;28;20179;-43
2022/06/28 01:44:15;;;;;;;12.63;9.80;;;14.80;99.90;;;;;;5051350;28;20105;-44
2022/06/28 01:46:42;;;;;;;9.18;7.93;;;14.70;99.90;;;;;;5058713;28;20060;-45
2022/06/28 01:49:08;;;;;;;13.13;10.00;;;14.70;99.90;;;;;;5058612;28;20115;-46
2022/06/28 01:51:35;;;;;;;10.18;8.90;;;14.70;99.90;;;;;;5062060;28;20017;-44
2022/06/28 01:54:01;;;;;;;10.45;9.20;;;14.70;99.90;;;;;;5060100;28;20052;-43
2022/06/28 01:56:27;;;;;;;9.07;8.20;;;14.60;99.90;;;;;;5062370;28;20170;-47
2022/06/28 01:58:54;;;;;;;12.40;10.88;;;14.60;99.90;;;;;;5061495;28;20031;-43
2022/06/28 02:01:20;;;;;;;11.63;10.45;;;14.60;99.90;;;;;;5055697;28;20399;-43
2022/06/28 02:03:46;;;;;;;14.40;9.93;;;14.60;99.90;;;;;;5061857;28;20020;-42
2022/06/28 02:06:11;;;;;;;10.73;9.52;;;14.50;99.90;;;;;;5058447;28;20025;-43
2022/06/28 02:08:37;;;;;;;11.38;10.15;;;14.60;99.90;;;;;;5062857;28;20032;-44
2022/06/28 02:11:04;;;;;;;11.75;10.52;;;14.60;99.90;;;;;;5059671;28;20110;-45
2022/06/28 02:13:30;;;;;;;12.20;11.00;;;14.50;99.90;;;;;;5062338;28;20406;-45
2022/06/28 02:15:55;;;;;;;15.93;13.82;;;14.50;99.90;;;;;;5060557;28;20107;-45
2022/06/28 02:18:21;;;;;;;15.57;12.52;;;14.50;99.90;;;;;;5052175;28;20545;-45
2022/06/28 02:20:47;;;;;;;14.13;12.07;;;14.50;99.90;;;;;;5063522;28;20103;-43
2022/06/28 02:23:13;;;;;;;15.18;12.55;;;14.40;99.90;;;;;;5057740;28;20078;-44
2022/06/28 02:25:38;;;;;;;12.10;10.68;;;14.40;99.90;;;;;;5063547;28;20028;-44
2022/06/28 02:28:04;;;;;;;12.65;11.40;;;14.50;99.90;;;;;;5057946;28;20100;-44
2022/06/28 02:30:29;;;;;;;18.70;13.45;;;14.50;99.90;;;;;;5063096;28;20483;-48
2022/06/28 02:32:55;;;;;;;13.45;12.05;;;14.50;99.90;;;;;;5060290;28;20021;-44
2022/06/28 02:40:49;;;;;;;14.65;12.65;;;14.40;99.90;;;;;;5054480;28;20027;-47
2022/06/28 02:43:14;;;;;;;13.05;11.20;;;14.40;99.90;;;;;;5064195;28;20025;-45
2022/06/28 02:45:42;;;;;;;13.13;11.73;;;14.30;99.90;;;;;;5057754;28;20026;-43
2022/06/28 02:48:08;;;;;;;13.10;11.80;;;14.30;99.90;;;;;;5065373;28;20040;-43
2022/06/28 02:50:34;;;;;;;14.45;11.10;;;14.30;99.90;;;;;;5059032;28;20092;-44
2022/06/28 02:53:00;;;;;;;14.15;12.02;;;14.30;99.90;;;;;;5059919;28;20108;-44
2022/06/28 02:55:26;;;;;;;19.23;13.93;;;14.30;99.90;;;;;;5069492;28;20025;-46
2022/06/28 02:57:52;;;;;;;19.35;13.30;;;14.30;99.90;;;;;;5064814;28;20039;-47
2022/06/28 03:00:19;;;;;;;21.83;15.98;;;14.30;99.90;;;;;;5071536;28;20092;-46
2022/06/28 03:02:46;;;;;;;17.25;12.77;;;14.30;99.90;;;;;;5063819;28;20100;-43
2022/06/28 03:05:14;;;;;;;15.95;14.10;;;14.30;99.90;;;;;;5067562;28;20479;-47
2022/06/28 03:07:41;;;;;;;16.95;14.23;;;14.30;99.90;;;;;;5067210;28;20028;-44
2022/06/28 03:10:08;;;;;;;16.55;13.30;;;14.30;99.90;;;;;;5066717;28;20040;-43
2022/06/28 03:12:33;;;;;;;15.77;13.70;;;14.30;99.90;;;;;;5068197;28;20024;-43
2022/06/28 03:14:59;;;;;;;15.50;13.73;;;14.30;99.90;;;;;;5065363;28;20332;-45
2022/06/28 03:17:25;;;;;;;15.10;13.43;;;14.30;99.90;;;;;;5070722;28;20100;-43
2022/06/28 03:19:50;;;;;;;16.20;13.63;;;14.30;99.90;;;;;;5064235;28;20041;-44
2022/06/28 03:22:16;;;;;;;13.85;12.10;;;14.30;99.90;;;;;;5067098;28;20066;-43
2022/06/28 03:24:42;;;;;;;14.85;12.10;;;14.20;99.90;;;;;;5066359;28;20036;-43
2022/06/28 03:27:07;;;;;;;17.63;14.07;;;14.20;99.90;;;;;;5066546;28;20029;-44
2022/06/28 03:29:33;;;;;;;18.73;14.52;;;14.20;99.90;;;;;;5066942;28;20024;-43
2022/06/28 03:31:58;;;;;;;14.43;12.75;;;14.20;99.90;;;;;;5064951;28;20104;-44
2022/06/28 03:34:24;;;;;;;16.02;13.20;;;14.20;99.90;;;;;;5070601;28;20032;-42
2022/06/28 03:36:50;;;;;;;15.38;12.68;;;14.20;99.90;;;;;;5064043;28;20155;-44
2022/06/28 03:39:16;;;;;;;16.02;13.32;;;14.20;99.90;;;;;;5067645;28;20020;-44
2022/06/28 03:41:42;;;;;;;13.57;12.07;;;14.20;99.90;;;;;;5066292;28;20391;-47
2022/06/28 03:44:08;;;;;;;16.10;13.30;;;14.20;99.90;;;;;;5066691;28;20029;-43
2022/06/28 03:46:34;;;;;;;15.85;14.18;;;14.20;99.90;;;;;;5068637;28;20035;-46
2022/06/28 03:48:59;;;;;;;14.82;13.25;;;14.20;99.90;;;;;;5065179;28;20090;-49
2022/06/28 03:51:25;;;;;;;15.73;13.02;;;14.20;99.90;;;;;;5070351;28;20036;-44
2022/06/28 03:53:50;;;;;;;14.43;12.50;;;14.30;99.90;;;;;;5065819;28;20060;-43
2022/06/28 03:56:16;;;;;;;16.73;13.05;;;14.40;99.90;;;;;;5067471;28;20478;-43
2022/06/28 03:58:41;;;;;;;15.00;13.02;;;14.40;99.90;;;;;;5067434;28;20553;-43
2022/06/28 04:01:07;;;;;;;17.05;14.20;;;14.40;99.90;;;;;;5066567;28;20033;-43
2022/06/28 04:03:34;;;;;;;15.05;12.77;;;14.40;99.90;;;;;;5066628;28;20035;-43
2022/06/28 04:05:59;;;;;;;13.32;11.75;;;14.40;99.90;;;;;;5061012;28;20020;-43
2022/06/28 04:08:25;;;;;;;14.73;13.13;;;14.50;99.90;;;;;;5064004;28;20437;-43
2022/06/28 04:11:13;;;;;;;16.77;13.57;;;14.50;99.90;;;;;;5061154;28;20028;-43
2022/06/28 04:13:38;;;;;;;16.50;13.32;;;14.50;99.90;;;;;;5063681;28;20024;-43
2022/06/28 04:16:04;;;;;;;13.98;11.98;;;14.50;99.90;;;;;;5062318;28;20149;-43
2022/06/28 04:18:30;;;;;;;15.00;11.57;;;14.60;99.90;;;;;;5063753;28;20050;-43
2022/06/28 04:20:56;;;;;;;15.98;13.95;;;14.60;99.90;;;;;;5062626;28;20122;-43
2022/06/28 04:23:21;;;;;;;18.02;12.13;;;14.70;99.90;;;;;;5060772;28;20069;-43
2022/06/28 04:25:47;;;;;;;15.40;12.80;;;14.70;99.90;;;;;;5063412;28;20100;-43
2022/06/28 04:28:13;;;;;;;14.82;12.55;;;14.80;99.90;;;;;;5062228;28;20028;-45
2022/06/28 04:30:38;;;;;;;13.15;10.82;;;14.80;99.90;;;;;;5063504;28;20029;-43
2022/06/28 04:33:04;;;;;;;15.65;11.60;;;14.90;99.90;;;;;;5062566;28;20020;-42
2022/06/28 04:35:29;;;;;;;16.45;12.48;;;14.90;99.90;;;;;;5063488;28;20608;-43
2022/06/28 04:37:55;;;;;;;13.82;12.32;;;15.00;99.90;;;;;;5062464;28;20055;-44
2022/06/28 04:40:21;;;;;;;11.48;10.27;;;15.00;99.90;;;;;;5062339;28;20047;-44
2022/06/28 04:42:46;;;;;;;15.95;11.95;;;15.00;99.90;;;;;;5055081;28;20533;-43
2022/06/28 04:45:12;;;;;;;13.95;11.65;;;15.10;99.90;;;;;;5063070;28;20036;-43
2022/06/28 04:47:37;;;;;;;15.75;10.35;;;15.20;99.90;;;;;;5063400;28;20032;-46
2022/06/28 04:50:03;;;;;;;12.88;10.40;;;15.20;99.90;;;;;;5062918;28;20031;-43
2022/06/28 04:52:29;;;;;;;11.35;9.90;;;15.20;99.90;;;;;;5061267;28;20047;-43
2022/06/28 04:54:54;;;;;;;11.68;10.50;;;15.30;99.90;;;;;;5067256;28;20063;-44
2022/06/28 04:57:20;;;;;;;12.25;10.82;;;15.30;99.90;;;;;;5060016;28;20020;-43
2022/06/28 04:59:45;;;;;;;13.48;11.23;;;15.30;99.90;;;;;;5067170;28;20123;-50
2022/06/28 05:02:11;;;;;;;13.73;12.23;;;15.30;99.90;;;;;;5059495;28;20044;-44
2022/06/28 05:04:37;;;;;;;14.30;12.05;;;15.30;99.90;;;;;;5059566;28;20076;-47
2022/06/28 05:07:02;;;;;;;11.82;10.70;;;15.40;99.90;;;;;;5065867;28;20029;-44
2022/06/28 05:09:28;;;;;;;14.13;10.27;;;15.40;99.90;;;;;;5059243;28;20021;-47
2022/06/28 05:11:54;;;;;;;16.10;12.00;;;15.40;99.90;;;;;;5066243;28;20024;-44
2022/06/28 05:14:19;;;;;;;10.57;9.45;;;15.40;99.90;;;;;;5062567;28;20025;-46
2022/06/28 05:16:45;;;;;;;11.55;10.35;;;15.40;99.90;;;;;;5066239;28;20025;-46
2022/06/28 05:19:11;;;;;;;17.63;12.23;;;15.40;99.90;;;;;;5059502;28;20020;-47
2022/06/28 05:21:37;;;;;;;13.38;10.88;;;15.40;99.90;;;;;;5080814;22;20564;-50
2022/06/28 05:24:03;;;;;;;12.25;10.88;;;15.50;99.90;;;;;;5065290;28;20028;-49
2022/06/28 05:26:29;;;;;;;13.10;11.40;;;15.50;99.90;;;;;;5059143;28;20025;-50
2022/06/28 05:28:54;;;;;;;13.55;12.07;;;15.50;99.90;;;;;;5066405;28;20390;-51
2022/06/28 05:31:20;;;;;;;12.02;10.85;;;15.50;99.90;;;;;;5058544;28;20079;-49
2022/06/28 05:33:46;;;;;;;14.27;12.85;;;15.50;99.90;;;;;;5066229;28;20368;-50
2022/06/28 05:36:11;;;;;;;14.27;11.90;;;15.50;99.90;;;;;;5059026;28;20017;-48
2022/06/28 05:38:37;;;;;;;18.77;14.05;;;15.50;99.90;;;;;;5058848;28;20064;-48
2022/06/28 05:41:02;;;;;;;16.20;13.43;;;15.60;99.90;;;;;;5065128;28;20483;-50
2022/06/28 05:43:28;;;;;;;18.60;12.90;;;15.70;99.90;;;;;;5058142;28;20020;-49
2022/06/28 05:45:54;;;;;;;17.88;14.25;;;15.80;99.90;;;;;;5065626;28;20028;-52
2022/06/28 05:48:19;;;;;;;18.80;12.75;;;15.80;99.90;;;;;;5058365;28;20025;-47
2022/06/28 05:50:47;;;;;;;15.05;12.35;;;15.80;99.90;;;;;;5061931;28;20017;-50
2022/06/28 05:53:13;;;;;;;15.75;12.80;;;15.90;99.90;;;;;;5061255;28;20040;-49
2022/06/28 05:55:39;;;;;;;14.10;12.80;;;15.90;99.90;;;;;;5061999;28;20052;-48
2022/06/28 05:58:05;;;;;;;15.80;12.60;;;15.90;99.90;;;;;;5060492;28;20443;-51
2022/06/28 06:00:33;;;;;;;15.30;13.00;;;15.90;99.90;;;;;;5064088;28;20075;-48
2022/06/28 06:02:59;;;;;;;13.05;11.80;;;15.90;99.90;;;;;;5059582;28;20028;-48
2022/06/28 06:05:25;;;;;;;17.80;15.38;;;15.90;99.90;;;;;;5062046;28;20029;-47
2022/06/28 06:07:50;;;;;;;15.45;13.93;;;16.00;99.90;;;;;;5059247;28;20021;-48
2022/06/28 06:10:16;;;;;;;15.65;13.18;;;16.20;99.90;;;;;;5057946;28;20032;-49
2022/06/28 06:12:41;;;;;;;15.35;13.43;;;16.30;99.90;;;;;;5073134;28;20028;-47
2022/06/28 06:15:07;;;;;;;16.27;14.57;;;16.50;99.90;;;;;;5060439;28;20562;-47
2022/06/28 06:17:33;;;;;;;17.45;14.05;;;16.70;99.90;;;;;;5062355;28;20025;-49
2022/06/28 06:19:59;;;;;;;14.82;13.30;;;16.80;99.90;;;;;;5059431;28;20023;-47
2022/06/28 06:22:24;;;;;;;14.88;12.30;;;16.80;99.90;;;;;;5060324;28;20155;-47
2022/06/28 06:24:50;;;;;;;14.48;12.95;;;16.80;99.90;;;;;;5057635;28;20033;-48
2022/06/28 06:27:15;;;;;;;16.75;12.82;;;16.90;99.90;;;;;;5061149;28;20059;-48
2022/06/28 06:29:41;;;;;;;14.30;12.90;;;17.00;99.90;;;;;;5060889;28;20025;-49
2022/06/28 06:32:07;;;;;;;14.38;12.90;;;17.10;99.90;;;;;;5059868;28;20029;-50
2022/06/28 06:34:33;;;;;;;15.30;12.57;;;17.10;99.90;;;;;;5063014;28;20044;-49
2022/06/28 06:36:58;;;;;;;12.48;11.15;;;17.00;99.90;;;;;;5059311;28;20107;-47
2022/06/28 06:39:24;;;;;;;10.95;9.85;;;17.00;99.90;;;;;;5060035;28;20020;-48
2022/06/28 06:41:49;;;;;;;11.50;10.27;;;16.90;99.90;;;;;;5058470;28;20095;-47
2022/06/28 06:44:15;;;;;;;12.15;10.05;;;16.80;99.90;;;;;;5060790;28;20025;-47
2022/06/28 06:46:40;;;;;;;10.07;9.18;;;16.70;99.90;;;;;;5059646;28;20032;-49
2022/06/28 06:49:06;;;;;;;9.77;8.77;;;16.60;99.90;;;;;;5059895;28;20037;-48
2022/06/28 06:51:32;;;;;;;12.13;10.02;;;16.60;99.90;;;;;;5063851;28;20043;-48
2022/06/28 06:53:58;;;;;;;11.07;9.98;;;16.50;99.90;;;;;;5059464;28;20029;-47
2022/06/28 06:56:24;;;;;;;12.00;9.25;;;16.50;99.90;;;;;;5061025;28;20019;-47
2022/06/28 06:58:50;;;;;;;10.57;9.38;;;16.70;99.90;;;;;;5058910;28;20024;-46
2022/06/28 07:01:15;;;;;;;13.20;11.52;;;16.80;99.90;;;;;;5060677;28;20027;-48
2022/06/28 07:03:44;;;;;;;11.82;10.57;;;16.90;99.90;;;;;;5060722;28;20052;-48
2022/06/28 07:06:13;;;;;;;11.07;10.00;;;17.00;99.90;;;;;;5058673;28;20309;-47
2022/06/28 07:08:40;;;;;;;10.60;9.65;;;17.00;99.90;;;;;;5059428;28;20483;-47
2022/06/28 07:11:06;;;;;;;11.30;10.10;;;17.10;99.90;;;;;;5059778;28;20047;-50
2022/06/28 07:13:32;;;;;;;10.68;9.85;;;17.40;99.90;;;;;;5061058;28;20036;-47
2022/06/28 07:15:57;;;;;;;9.90;9.02;;;17.60;99.90;;;;;;5060574;28;20097;-47
2022/06/28 07:18:23;;;;;;;11.77;9.43;;;17.70;99.90;;;;;;5060527;28;20056;-49
2022/06/28 07:20:52;;;;;;;9.77;8.55;;;17.60;99.90;;;;;;5060516;28;20620;-48
2022/06/28 07:23:18;;;;;;;9.82;8.82;;;17.70;99.90;;;;;;5050617;28;20037;-47
2022/06/28 07:25:44;;;;;;;12.07;8.82;;;17.70;99.90;;;;;;5060801;28;20036;-47
2022/06/28 07:28:10;;;;;;;12.57;9.20;;;18.00;99.90;;;;;;5059366;28;20505;-49
2022/06/28 07:30:36;;;;;;;8.80;8.00;;;18.30;99.90;;;;;;5060750;28;20108;-47
2022/06/28 07:33:02;;;;;;;11.73;8.30;;;18.40;99.90;;;;;;5059830;28;20027;-50
2022/06/28 07:35:28;;;;;;;9.68;7.97;;;18.40;99.90;;;;;;5061265;28;20502;-48
2022/06/28 07:37:54;;;;;;;9.70;7.78;;;18.30;99.90;;;;;;5059779;28;20070;-47
2022/06/28 07:40:20;;;;;;;10.23;9.32;;;18.30;99.90;;;;;;5059456;28;20021;-47
2022/06/28 07:42:46;;;;;;;8.90;7.95;;;18.30;99.90;;;;;;5063772;28;20048;-51
2022/06/28 07:45:12;;;;;;;6.43;5.63;;;18.60;99.90;;;;;;5063887;28;20025;-48
2022/06/28 07:47:38;;;;;;;6.90;6.35;;;18.40;99.90;;;;;;5064331;28;20348;-47
2022/06/28 07:52:48;;;;;;;8.93;5.57;;;18.30;99.90;;;;;;5057119;28;20027;-47
2022/06/28 07:55:14;;;;;;;6.60;6.05;;;18.50;99.90;;;;;;5060785;28;20021;-48
2022/06/28 07:57:40;;;;;;;8.15;5.60;;;18.90;99.90;;;;;;5060519;28;20384;-47
2022/06/28 08:00:07;;;;;;;7.05;4.53;;;19.40;99.90;;;;;;5068415;28;20125;-50
2022/06/28 08:02:32;;;;;;;7.80;4.22;;;19.70;99.90;;;;;;5060092;28;20020;-49
2022/06/28 08:04:58;;;;;;;6.20;3.92;;;20.00;99.90;;;;;;5060297;28;20104;-48
2022/06/28 08:07:24;;;;;;;5.00;3.70;;;20.20;99.90;;;;;;5065388;28;20104;-49
2022/06/28 08:09:50;;;;;;;5.97;4.35;;;20.40;99.90;;;;;;5060603;28;20376;-49
2022/06/28 08:12:15;;;;;;;5.20;4.45;;;20.60;99.90;;;;;;5066930;28;20102;-48
2022/06/28 08:14:41;;;;;;;3.85;3.50;;;20.80;99.90;;;;;;5060115;28;20392;-51
2022/06/28 08:17:07;;;;;;;6.13;3.78;;;20.70;99.90;;;;;;5068029;28;20063;-48
2022/06/28 08:19:33;;;;;;;5.50;3.58;;;20.40;99.90;;;;;;5059999;28;20123;-48
2022/06/28 08:21:59;;;;;;;4.82;4.03;;;20.30;99.90;;;;;;5059460;28;20033;-50
2022/06/28 08:24:25;;;;;;;4.68;3.70;;;20.30;99.90;;;;;;5064996;28;20388;-50
2022/06/28 08:26:52;;;;;;;6.82;3.58;;;20.50;99.90;;;;;;5060632;28;20029;-48
2022/06/28 08:29:18;;;;;;;5.60;3.30;;;20.50;99.90;;;;;;5066662;28;20017;-48
2022/06/28 08:31:44;;;;;;;5.60;3.50;;;20.60;99.90;;;;;;5060168;28;20040;-52
2022/06/28 08:34:10;;;;;;;4.30;3.33;;;20.80;99.90;;;;;;5067685;28;20407;-48
2022/06/28 08:36:36;;;;;;;4.97;3.45;;;21.10;99.90;;;;;;5059627;28;20024;-48
2022/06/28 08:39:03;;;;;;;7.55;3.20;;;21.40;99.90;;;;;;5061670;28;20029;-49
2022/06/28 08:41:32;;;;;;;6.28;3.58;;;21.70;99.90;;;;;;5063530;28;20099;-49
2022/06/28 08:43:58;;;;;;;3.58;2.33;;;22.00;99.90;;;;;;5059265;28;20136;-51
2022/06/28 08:46:24;;;;;;;3.58;1.90;;;22.10;99.90;;;;;;5065696;28;20064;-51
2022/06/28 08:48:58;;;;;;;4.28;1.70;;;22.20;99.90;;;;;;5059511;28;20399;-49
2022/06/28 08:51:30;;;;;;;2.08;1.88;;;22.10;99.90;;;;;;5065592;28;20506;-51
2022/06/28 08:53:59;;;;;;;3.97;1.80;;;22.20;99.90;;;;;;5061581;28;20129;-51
2022/06/28 08:56:25;;;;;;;3.50;2.28;;;22.30;99.90;;;;;;5063064;28;20468;-53
2022/06/28 08:58:51;;;;;;;4.57;1.80;;;22.40;99.90;;;;;;5062402;28;20104;-52
2022/06/28 09:01:17;;;;;;;4.32;1.95;;;22.40;99.90;;;;;;5062877;28;20513;-51
2022/06/28 09:03:46;;;;;;;5.97;2.13;;;22.50;99.90;;;;;;5062959;28;20036;-48
2022/06/28 09:06:12;;;;;;;2.60;1.80;;;22.60;99.90;;;;;;5059315;28;20020;-50
2022/06/28 09:08:38;;;;;;;2.10;1.25;;;22.20;99.90;;;;;;5062712;28;20031;-49
2022/06/28 09:11:04;;;;;;;3.50;1.35;;;21.60;99.90;;;;;;5061169;28;20086;-52
2022/06/28 09:13:30;;;;;;;2.85;1.33;;;21.30;99.90;;;;;;5062331;28;20039;-53
2022/06/28 09:16:01;;;;;;;3.25;1.17;;;21.20;99.90;;;;;;5061854;28;20371;-50
2022/06/28 09:18:43;;;;;;;7.47;1.27;;;21.40;99.90;;;;;;5062110;28;20563;-52
2022/06/28 09:21:12;;;;;;;2.40;1.42;;;21.70;99.90;;;;;;5058788;28;20025;-54
2022/06/28 09:23:40;;;;;;;2.95;1.50;;;21.70;99.90;;;;;;5063651;28;20039;-52
2022/06/28 09:26:17;;;;;;;2.15;1.40;;;22.10;99.90;;;;;;5059880;28;20021;-52
2022/06/28 09:28:45;;;;;;;2.25;1.38;;;22.20;99.90;;;;;;5065205;28;20121;-49
2022/06/28 09:31:16;;;;;;;2.25;1.10;;;22.30;99.90;;;;;;5058785;28;20025;-54
2022/06/28 09:33:43;;;;;;;1.65;1.15;;;22.20;99.90;;;;;;5065700;28;20021;-50
2022/06/28 09:36:13;;;;;;;5.10;1.42;;;21.90;99.90;;;;;;5059369;28;20114;-53
2022/06/28 09:38:39;;;;;;;2.47;0.80;;;22.00;99.90;;;;;;5054170;28;20422;-51
2022/06/28 09:41:05;;;;;;;1.60;1.05;;;22.10;99.90;;;;;;5065450;28;20028;-54
2022/06/28 09:43:32;;;;;;;2.45;1.00;;;22.20;99.90;;;;;;5058599;28;20029;-51
2022/06/28 09:46:03;;;;;;;1.27;0.68;;;22.40;99.90;;;;;;5065773;28;20025;-51
2022/06/28 09:48:37;;;;;;;1.45;0.70;;;22.40;99.90;;;;;;5058519;28;20032;-51
2022/06/28 09:51:03;;;;;;;3.65;1.10;;;22.30;99.90;;;;;;5063974;28;20017;-51
2022/06/28 09:53:30;;;;;;;2.95;1.10;;;22.30;99.90;;;;;;5061759;28;20031;-54
2022/06/28 09:56:02;;;;;;;2.38;0.80;;;22.20;99.00;;;;;;5060641;28;20048;-51
2022/06/28 09:58:30;;;;;;;2.78;0.70;;;22.30;99.90;;;;;;5061834;28;20036;-54
2022/06/28 10:00:56;;;;;;;1.70;0.65;;;22.30;99.50;;;;;;5061074;28;20082;-52
2022/06/28 10:03:21;;;;;;;1.63;0.77;;;22.40;99.90;;;;;;5060572;28;20095;-53
2022/06/28 10:05:47;;;;;;;3.72;0.90;;;22.40;99.90;;;;;;5059868;28;20103;-52
2022/06/28 10:08:13;;;;;;;3.78;0.80;;;22.30;97.40;;;;;;5061700;28;20016;-52
2022/06/28 10:10:40;;;;;;;0.90;0.70;;;22.20;99.60;;;;;;5061725;28;20551;-51
2022/06/28 10:16:01;;;;;;;3.47;1.38;;;22.30;99.10;;;;;;5061427;28;20027;-54
2022/06/28 10:18:28;;;;;;;2.00;0.70;;;22.10;98.50;;;;;;5060185;28;20038;-54
2022/06/28 10:20:55;;;;;;;3.10;0.95;;;22.00;99.10;;;;;;5060862;28;20386;-51
2022/06/28 10:23:37;;;;;;;1.73;0.80;;;22.10;99.90;;;;;;5059675;28;20055;-51
2022/06/28 10:26:02;;;;;;;2.90;0.50;;;22.20;99.00;;;;;;5057762;28;20028;-54
2022/06/28 10:28:44;;;;;;;1.77;0.60;;;22.40;99.90;;;;;;5062225;28;20035;-56
2022/06/28 10:31:24;;;;;;;0.88;0.50;;;22.40;98.10;;;;;;5058153;28;20021;-54
2022/06/28 10:33:58;;;;;;;1.13;0.70;;;22.50;98.90;;;;;;5064162;28;20025;-55
2022/06/28 10:36:26;;;;;;;0.52;0.30;;;22.70;99.90;;;;;;5056479;28;20020;-51
2022/06/28 10:39:06;;;;;;;0.60;0.60;;;22.80;98.00;;;;;;5056799;28;20108;-52
2022/06/28 10:41:37;;;;;;;0.80;0.60;;;22.90;98.30;;;;;;5061273;28;20032;-55
2022/06/28 10:44:13;;;;;;;1.20;0.30;;;22.80;97.90;;;;;;5059485;28;20031;-53
2022/06/28 10:46:52;;;;;;;1.77;0.63;;;22.80;96.90;;;;;;5061512;28;20072;-55
2022/06/28 10:49:18;;;;;;;1.20;0.80;;;22.80;98.40;;;;;;5047918;28;20339;-54
2022/06/28 10:52:26;;;;;;;1.92;0.70;;;22.90;98.20;;;;;;5064355;28;20032;-53
2022/06/28 10:54:52;;;;;;;1.60;0.50;;;22.90;98.20;;;;;;5053912;28;20117;-51
2022/06/28 10:57:34;;;;;;;1.30;0.77;;;22.70;97.50;;;;;;5057796;28;20395;-53
2022/06/28 11:00:06;;;;;;;2.22;0.93;;;22.40;97.10;;;;;;5057744;28;20025;-52
2022/06/28 11:02:55;;;;;;;2.10;0.80;;;22.10;97.40;;;;;;5057189;28;20041;-53
2022/06/28 11:05:26;;;;;;;1.05;0.47;;;22.10;99.10;;;;;;5043726;28;20128;-56
2022/06/28 11:07:59;;;;;;;1.52;0.60;;;22.20;96.10;;;;;;5058805;28;20104;-55
2022/06/28 11:10:26;;;;;;;0.47;0.35;;;22.10;97.10;;;;;;5060929;28;20028;-54
2022/06/28 11:12:51;;;;;;;1.02;0.93;;;22.10;96.60;;;;;;5059049;28;20151;-54
2022/06/28 11:15:36;;;;;;;1.65;0.52;;;22.20;95.70;;;;;;5064348;28;20028;-55
2022/06/28 11:18:13;;;;;;;1.13;0.70;;;22.30;96.70;;;;;;5064355;28;20017;-52
2022/06/28 11:20:38;;;;;;;1.13;0.57;;;22.30;96.70;;;;;;5064603;28;20025;-52
2022/06/28 11:23:05;;;;;;;0.70;0.65;;;22.50;97.00;;;;;;5085666;22;20125;-45
2022/06/28 11:28:16;;;;;;;1.85;0.70;;;22.60;97.40;;;;;;5071271;28;20077;-46
2022/06/28 11:30:42;;;;;;;1.00;0.82;;;22.80;95.10;;;;;;5068403;28;20063;-47
2022/06/28 11:33:10;;;;;;;1.75;0.50;;;22.60;96.80;;;;;;5070352;28;20017;-46
2022/06/28 11:35:36;;;;;;;1.33;0.80;;;22.70;96.90;;;;;;5067534;28;20044;-47
2022/06/28 11:38:09;;;;;;;2.72;0.75;;;22.90;97.20;;;;;;5069236;28;20063;-44
2022/06/28 11:40:44;;;;;;;2.80;0.85;;;23.00;97.30;;;;;;5072924;28;20024;-44
2022/06/28 11:43:15;;;;;;;3.13;0.80;;;22.90;97.00;;;;;;5065489;28;20033;-45
2022/06/28 11:45:43;;;;;;;1.40;0.90;;;22.90;96.70;;;;;;5071290;28;20491;-46
2022/06/28 11:48:16;;;;;;;1.67;0.57;;;23.00;96.70;;;;;;5065322;28;20035;-45
2022/06/28 11:50:45;;;;;;;2.97;1.15;;;23.10;97.60;;;;;;5072520;28;20608;-46
2022/06/28 11:53:12;;;;;;;1.10;0.52;;;23.20;95.50;;;;;;5070846;28;20107;-51
2022/06/28 11:55:39;;;;;;;0.52;0.50;;;23.20;96.10;;;;;;5067643;28;20503;-48
2022/06/28 11:58:25;;;;;;;0.93;0.32;;;23.30;95.70;;;;;;5070522;28;20146;-47
2022/06/28 12:01:07;;;;;;;0.90;0.60;;;23.30;93.90;;;;;;5066925;28;20009;-47
2022/06/28 12:03:43;;;;;;;1.75;0.50;;;23.30;93.30;;;;;;5069249;28;20108;-49
2022/06/28 12:06:27;;;;;;;;;;;23.20;92.40;;;;;;5072088;28;20104;-46
2022/06/28 12:08:55;;;;;;;1.02;0.70;;;23.20;92.90;;;;;;5068188;28;19918;-50
2022/06/28 12:11:25;;;;;;;1.85;0.57;;;23.20;93.10;;;;;;5070436;28;20016;-50
2022/06/28 12:14:05;;;;;;;1.02;0.57;;;23.20;94.60;;;;;;5067096;28;20016;-48
2022/06/28 12:16:38;;;;;;;2.05;0.50;;;23.20;93.60;;;;;;5059898;28;20583;-48
2022/06/28 12:19:06;;;;;;;1.27;0.60;;;23.30;94.40;;;;;;5063641;28;20031;-48
2022/06/28 12:21:33;;;;;;;1.13;0.60;;;23.30;94.10;;;;;;5070280;28;20596;-47
2022/06/28 12:23:59;;;;;;;1.10;0.77;;;23.40;94.90;;;;;;5069086;28;20094;-49
2022/06/28 12:26:45;;;;;;;1.33;0.45;;;23.60;94.60;;;;;;5067195;28;20024;-46
2022/06/28 12:29:12;;;;;;;1.95;0.80;;;23.40;92.50;;;;;;5067269;28;20029;-49
2022/06/28 12:31:42;;;;;;;1.33;0.80;;;23.10;93.20;;;;;;5067606;28;20035;-49
2022/06/28 12:34:08;;;;;;;1.58;0.60;;;23.10;93.00;;;;;;5069028;28;20024;-51
2022/06/28 12:36:34;;;;;;;1.48;0.70;;;23.10;92.40;;;;;;5065915;28;20096;-52
2022/06/28 12:39:01;;;;;;;2.30;0.80;;;23.20;93.60;;;;;;5071072;28;20032;-53
2022/06/28 12:41:26;;;;;;;2.17;0.80;;;23.40;92.70;;;;;;5067583;28;20025;-53
2022/06/28 12:43:52;;;;;;;1.23;0.63;;;23.40;91.50;;;;;;5070151;28;20437;-50
2022/06/28 12:46:18;;;;;;;0.50;0.47;;;23.50;93.20;;;;;;5067765;28;20032;-50
2022/06/28 12:48:43;;;;;;;0.95;0.77;;;23.70;93.10;;;;;;5068539;28;20024;-49
2022/06/28 12:51:09;;;;;;;1.48;0.80;;;23.90;91.60;;;;;;5071254;28;20431;-50
2022/06/28 12:53:34;;;;;;;0.70;0.50;;;23.80;90.80;;;;;;5069506;28;20028;-52